createdAt,value
2017-05-05T00:03:24.314Z,90.40
2017-05-05T00:05:52.248Z,90.60
2017-05-05T00:08:20.605Z,90.50
2017-05-05T00:13:18.150Z,90.30
2017-05-05T00:18:16.202Z,90.60
2017-05-05T00:25:42.809Z,90.60
2017-05-05T00:28:11.474Z,90.40
2017-05-05T00:30:39.956Z,91.00
2017-05-05T00:33:08.260Z,91.20
2017-05-05T00:35:37.307Z,90.80
2017-05-05T00:38:05.657Z,90.90
2017-05-05T00:40:33.962Z,90.80
2017-05-05T00:43:01.907Z,90.80
2017-05-05T00:45:30.254Z,90.60
2017-05-05T00:47:58.555Z,90.30
2017-05-05T00:50:26.489Z,90.30
2017-05-05T00:52:54.474Z,90.10
2017-05-05T00:55:23.137Z,90.40
2017-05-05T01:00:20.730Z,90.60
2017-05-05T01:05:18.282Z,90.50
2017-05-05T01:07:47.366Z,90.50
2017-05-05T01:12:44.547Z,90.30
2017-05-05T01:15:13.261Z,90.50
2017-05-05T01:17:41.188Z,90.40
2017-05-05T01:20:09.125Z,90.30
2017-05-05T01:22:37.850Z,90.30
2017-05-05T01:32:32.503Z,89.90
2017-05-05T01:35:00.830Z,89.50
2017-05-05T01:37:29.441Z,89.70
2017-05-05T01:39:58.107Z,89.50
2017-05-05T01:42:26.034Z,89.90
2017-05-05T01:44:54.383Z,89.50
2017-05-05T01:47:22.314Z,89.60
2017-05-05T01:49:50.253Z,89.10
2017-05-05T01:52:18.598Z,89.50
2017-05-05T01:54:46.523Z,89.60
2017-05-05T01:57:15.190Z,89.30
2017-05-05T01:59:43.162Z,89.50
2017-05-05T02:02:11.825Z,90.20
2017-05-05T02:07:09.791Z,89.20
2017-05-05T02:09:38.102Z,88.90
2017-05-05T02:12:06.034Z,89.00
2017-05-05T02:19:32.915Z,89.10
2017-05-05T02:22:01.289Z,88.90
2017-05-05T02:24:29.958Z,89.20
2017-05-05T02:26:58.250Z,88.90
2017-05-05T02:29:26.222Z,88.70
2017-05-05T02:31:55.262Z,88.90
2017-05-05T02:36:52.502Z,88.60
2017-05-05T02:39:20.808Z,88.50
2017-05-05T02:41:48.738Z,88.50
2017-05-05T02:44:18.131Z,89.00
2017-05-05T02:51:43.870Z,88.10
2017-05-05T02:54:12.170Z,87.50
2017-05-05T02:59:09.768Z,88.10
2017-05-05T03:01:37.718Z,88.30
2017-05-05T03:04:05.656Z,88.10
2017-05-05T03:14:01.170Z,88.60
2017-05-05T03:16:29.478Z,88.80
2017-05-05T03:18:58.518Z,87.90
2017-05-05T03:21:27.602Z,88.30
2017-05-05T03:23:55.899Z,88.30
2017-05-05T03:26:24.939Z,88.00
2017-05-05T03:28:53.419Z,87.90
2017-05-05T03:31:21.726Z,87.90
2017-05-05T03:33:49.656Z,87.60
2017-05-05T03:36:18.002Z,88.30
2017-05-05T03:38:46.298Z,87.40
2017-05-05T03:41:14.598Z,87.50
2017-05-05T03:43:43.718Z,88.50
2017-05-05T03:46:11.642Z,88.20
2017-05-05T03:48:39.939Z,89.20
2017-05-05T03:51:08.218Z,88.00
2017-05-05T03:53:36.898Z,89.00
2017-05-05T04:01:03.046Z,89.30
2017-05-05T04:03:31.365Z,89.10
2017-05-05T04:05:59.734Z,89.50
2017-05-05T04:08:28.027Z,89.40
2017-05-05T04:10:55.954Z,88.90
2017-05-05T04:15:53.545Z,89.00
2017-05-05T04:18:21.850Z,89.40
2017-05-05T04:20:50.211Z,89.30
2017-05-05T04:23:18.510Z,88.60
2017-05-05T04:25:47.546Z,89.70
2017-05-05T04:28:16.263Z,89.10
2017-05-05T04:33:13.817Z,88.40
2017-05-05T04:35:41.794Z,88.40
2017-05-05T04:38:10.090Z,88.30
2017-05-05T04:40:38.758Z,88.10
2017-05-05T04:43:07.153Z,88.10
2017-05-05T04:48:04.792Z,87.90
2017-05-05T04:50:33.479Z,87.90
2017-05-05T04:55:30.682Z,88.70
2017-05-05T05:00:27.914Z,88.60
2017-05-05T05:02:56.209Z,88.30
2017-05-05T05:05:25.311Z,89.10
2017-05-05T05:10:23.234Z,89.20
2017-05-05T05:12:51.962Z,89.80
2017-05-05T05:15:19.899Z,89.50
2017-05-05T05:17:47.826Z,89.70
2017-05-05T05:20:16.174Z,90.00
2017-05-05T05:22:44.098Z,89.80
2017-05-05T05:25:13.142Z,89.70
2017-05-05T05:27:41.489Z,90.10
2017-05-05T05:30:10.526Z,90.00
2017-05-05T05:32:38.823Z,90.00
2017-05-05T05:35:07.950Z,90.20
2017-05-05T05:40:05.514Z,90.00
2017-05-05T05:42:33.867Z,89.80
2017-05-05T05:45:02.166Z,90.00
2017-05-05T05:47:30.461Z,90.00
2017-05-05T05:49:59.502Z,91.00
2017-05-05T05:52:27.430Z,89.50
2017-05-05T05:54:56.094Z,89.50
2017-05-05T05:57:24.443Z,88.90
2017-05-05T05:59:52.746Z,89.50
2017-05-05T06:04:50.308Z,88.10
2017-05-05T06:07:18.236Z,88.30
2017-05-05T06:09:46.166Z,88.00
2017-05-05T06:12:15.251Z,87.40
2017-05-05T06:14:43.173Z,87.20
2017-05-05T06:17:11.097Z,87.20
2017-05-05T06:27:06.394Z,88.30
2017-05-05T06:29:35.078Z,88.10
2017-05-05T06:32:03.027Z,88.20
2017-05-05T06:37:00.646Z,88.00
2017-05-05T06:41:58.235Z,87.40
2017-05-05T06:44:26.610Z,87.70
2017-05-05T06:46:54.911Z,87.20
2017-05-05T06:49:23.606Z,87.20
2017-05-05T06:51:52.294Z,86.20
2017-05-05T06:54:20.607Z,86.00
2017-05-05T06:56:48.959Z,85.80
2017-05-05T06:59:17.254Z,86.10
2017-05-05T07:01:45.179Z,86.30
2017-05-05T07:04:13.922Z,85.80
2017-05-05T07:06:42.589Z,84.70
2017-05-05T07:09:10.887Z,85.60
2017-05-05T07:11:40.018Z,84.50
2017-05-05T07:14:09.054Z,85.90
2017-05-05T07:16:37.745Z,85.30
2017-05-05T07:19:06.243Z,84.30
2017-05-05T07:21:35.302Z,84.90
2017-05-05T07:24:03.267Z,84.30
2017-05-05T07:26:32.379Z,84.70
2017-05-05T07:29:00.682Z,85.20
2017-05-05T07:31:28.978Z,85.20
2017-05-05T07:36:26.210Z,83.90
2017-05-05T07:38:54.506Z,85.80
2017-05-05T07:41:22.866Z,84.20
2017-05-05T07:43:51.171Z,84.20
2017-05-05T07:48:48.434Z,84.60
2017-05-05T07:56:14.914Z,84.00
2017-05-05T07:58:43.214Z,83.70
2017-05-05T08:01:11.143Z,83.20
2017-05-05T08:03:39.822Z,83.10
2017-05-05T08:06:08.130Z,83.10
2017-05-05T08:08:36.434Z,83.30
2017-05-05T08:11:04.818Z,82.60
2017-05-05T08:13:33.880Z,80.30
2017-05-05T08:16:02.198Z,80.10
2017-05-05T08:18:30.550Z,80.50
2017-05-05T08:20:58.474Z,79.80
2017-05-05T08:23:26.770Z,79.10
2017-05-05T08:25:55.119Z,78.90
2017-05-05T08:28:23.418Z,79.40
2017-05-05T08:30:51.356Z,79.00
2017-05-05T08:33:19.726Z,79.00
2017-05-05T08:35:48.786Z,80.80
2017-05-05T08:38:17.459Z,78.80
2017-05-05T08:40:45.807Z,80.50
2017-05-05T08:45:42.998Z,80.20
2017-05-05T08:48:11.346Z,79.00
2017-05-05T08:50:39.279Z,78.90
2017-05-05T08:53:07.591Z,79.00
2017-05-05T08:55:35.947Z,77.60
2017-05-05T08:58:04.259Z,78.20
2017-05-05T09:00:32.211Z,77.00
2017-05-05T09:03:00.562Z,76.90
2017-05-05T09:07:58.110Z,78.00
2017-05-05T09:10:27.578Z,76.40
2017-05-05T09:12:55.501Z,75.00
2017-05-05T09:15:24.541Z,75.80
2017-05-05T09:17:52.539Z,75.00
2017-05-05T09:20:20.866Z,75.50
2017-05-05T09:22:48.798Z,75.10
2017-05-05T09:25:17.915Z,76.00
2017-05-05T09:27:46.958Z,72.60
2017-05-05T09:30:15.994Z,72.30
2017-05-05T09:35:13.596Z,72.80
2017-05-05T09:37:41.890Z,72.00
2017-05-05T09:40:10.071Z,70.80
2017-05-05T09:42:38.378Z,71.40
2017-05-05T09:45:06.680Z,71.70
2017-05-05T09:47:35.891Z,71.50
2017-05-05T09:50:04.207Z,72.10
2017-05-05T09:52:32.163Z,71.30
2017-05-05T09:55:00.471Z,72.00
2017-05-05T09:57:28.394Z,72.50
2017-05-05T09:59:57.063Z,72.00
2017-05-05T10:02:25.405Z,72.00
2017-05-05T10:12:20.848Z,71.50
2017-05-05T10:17:18.073Z,74.00
2017-05-05T10:19:46.366Z,73.20
2017-05-05T10:24:44.334Z,72.10
2017-05-05T10:27:12.262Z,73.50
2017-05-05T10:29:40.562Z,75.40
2017-05-05T10:32:08.906Z,75.80
2017-05-05T10:34:37.951Z,75.40
2017-05-05T10:42:04.486Z,75.50
2017-05-05T10:44:32.426Z,75.10
2017-05-05T10:47:00.774Z,76.10
2017-05-05T10:49:28.702Z,76.80
2017-05-05T10:51:56.629Z,75.60
2017-05-05T10:54:25.714Z,77.00
2017-05-05T10:59:23.272Z,77.20
2017-05-05T11:01:51.266Z,77.50
2017-05-05T11:04:19.948Z,77.10
2017-05-05T11:06:48.250Z,77.90
2017-05-05T11:09:16.226Z,78.10
2017-05-05T11:11:44.522Z,78.20
2017-05-05T11:14:12.822Z,77.90
2017-05-05T11:19:10.034Z,75.60
2017-05-05T11:21:38.346Z,75.60
2017-05-05T11:24:06.334Z,74.60
2017-05-05T11:26:35.030Z,77.40
2017-05-05T11:29:03.333Z,75.60
2017-05-05T11:31:31.694Z,76.40
2017-05-05T11:36:28.888Z,76.10
2017-05-05T11:38:57.247Z,74.70
2017-05-05T11:41:25.911Z,76.30
2017-05-05T11:43:54.206Z,74.30
2017-05-05T11:48:52.199Z,75.20
2017-05-05T11:51:20.133Z,72.70
2017-05-05T11:53:48.478Z,72.80
2017-05-05T11:56:17.510Z,74.10
2017-05-05T11:58:45.803Z,72.90
2017-05-05T12:01:14.147Z,72.20
2017-05-05T12:08:40.250Z,71.70
2017-05-05T12:11:08.914Z,72.30
2017-05-05T12:13:37.215Z,71.50
2017-05-05T12:18:34.831Z,70.00
2017-05-05T12:21:03.516Z,71.30
2017-05-05T12:23:31.883Z,71.30
2017-05-05T12:26:00.178Z,71.10
2017-05-05T12:30:57.807Z,71.60
2017-05-05T12:33:26.101Z,72.50
2017-05-05T12:35:54.394Z,73.20
2017-05-05T12:38:22.891Z,72.60
2017-05-05T12:40:50.826Z,71.20
2017-05-05T12:45:48.070Z,70.20
2017-05-05T12:48:16.734Z,69.90
2017-05-05T12:50:45.026Z,69.70
2017-05-05T12:55:42.250Z,70.40
2017-05-05T12:58:10.543Z,69.80
2017-05-05T13:00:38.878Z,70.00
2017-05-05T13:03:06.815Z,68.90
2017-05-05T13:05:35.126Z,69.50
2017-05-05T13:08:03.510Z,69.00
2017-05-05T13:10:31.448Z,68.40
2017-05-05T13:12:59.746Z,67.50
2017-05-05T13:15:28.105Z,66.90
2017-05-05T13:17:56.406Z,67.40
2017-05-05T13:20:25.437Z,67.90
2017-05-05T13:22:53.782Z,67.00
2017-05-05T13:25:21.710Z,65.00
2017-05-05T13:32:47.829Z,66.60
2017-05-05T13:35:16.493Z,67.90
2017-05-05T13:40:13.715Z,66.30
2017-05-05T13:42:42.379Z,64.30
2017-05-05T13:45:10.858Z,66.70
2017-05-05T13:47:39.154Z,64.30
2017-05-05T13:50:07.464Z,66.70
2017-05-05T13:52:35.825Z,65.40
2017-05-05T13:55:03.802Z,64.60
2017-05-05T14:00:01.338Z,66.60
2017-05-05T14:02:29.275Z,65.30
2017-05-05T14:04:57.565Z,65.30
2017-05-05T14:09:55.543Z,64.80
2017-05-05T14:12:23.843Z,64.00
2017-05-05T14:14:51.835Z,64.40
2017-05-05T14:17:20.884Z,66.30
2017-05-05T14:19:49.182Z,66.30
2017-05-05T14:22:18.270Z,67.80
2017-05-05T14:24:47.302Z,68.00
2017-05-05T14:27:15.599Z,65.60
2017-05-05T14:32:13.200Z,66.00
2017-05-05T14:34:41.498Z,65.00
2017-05-05T14:37:10.354Z,65.60
2017-05-05T14:39:39.017Z,65.70
2017-05-05T14:42:07.324Z,66.90
2017-05-05T14:44:35.309Z,66.60
2017-05-05T14:47:03.932Z,66.20
2017-05-05T14:49:31.871Z,65.40
2017-05-05T14:52:00.218Z,66.30
2017-05-05T14:54:28.510Z,66.30
2017-05-05T14:59:26.766Z,66.30
2017-05-05T15:01:55.084Z,66.20
2017-05-05T15:04:23.375Z,66.20
2017-05-05T15:09:20.597Z,66.60
2017-05-05T15:11:48.891Z,66.80
2017-05-05T15:14:17.238Z,66.20
2017-05-05T15:16:45.530Z,66.20
2017-05-05T15:19:13.459Z,65.80
2017-05-05T15:21:44.574Z,65.40
2017-05-05T15:24:12.874Z,67.50
2017-05-05T15:31:39.392Z,68.50
2017-05-05T15:39:06.294Z,69.90
2017-05-05T15:41:34.615Z,69.80
2017-05-05T15:46:32.256Z,70.40
2017-05-05T15:49:00.926Z,71.50
2017-05-05T15:51:29.266Z,70.60
2017-05-05T15:56:27.218Z,71.50
2017-05-05T15:58:57.088Z,71.30
2017-05-05T16:01:25.387Z,72.20
2017-05-05T16:06:23.298Z,73.00
2017-05-05T16:13:49.425Z,73.40
2017-05-05T16:16:17.373Z,73.40
2017-05-05T16:18:46.058Z,72.30
2017-05-05T16:21:14.038Z,73.00
2017-05-05T16:26:11.951Z,73.40
2017-05-05T16:28:39.949Z,72.00
2017-05-05T16:31:09.000Z,73.70
2017-05-05T16:36:06.643Z,72.30
2017-05-05T16:38:34.946Z,73.50
2017-05-05T16:41:03.268Z,72.50
2017-05-05T16:43:31.617Z,72.70
2017-05-05T16:46:00.665Z,71.60
2017-05-05T16:48:28.959Z,73.00
2017-05-05T16:53:26.914Z,71.90
2017-05-05T16:55:55.583Z,71.00
2017-05-05T17:00:53.179Z,71.00
2017-05-05T17:03:22.214Z,71.60
2017-05-05T17:05:50.558Z,72.00
2017-05-05T17:08:18.861Z,71.80
2017-05-05T17:13:16.446Z,71.30
2017-05-05T17:15:45.118Z,70.70
2017-05-05T17:18:13.419Z,71.70
2017-05-05T17:23:11.282Z,71.20
2017-05-05T17:25:39.589Z,71.70
2017-05-05T17:28:07.588Z,72.20
2017-05-05T17:30:35.980Z,72.20
2017-05-05T17:33:04.680Z,73.90
2017-05-05T17:35:33.054Z,73.70
2017-05-05T17:38:01.359Z,73.80
2017-05-05T17:40:29.654Z,72.00
2017-05-05T17:42:58.002Z,73.10
2017-05-05T17:47:55.560Z,73.00
2017-05-05T17:50:23.540Z,73.50
2017-05-05T17:52:51.838Z,75.10
2017-05-05T17:55:20.506Z,73.80
2017-05-05T17:57:49.218Z,73.30
2017-05-05T18:02:46.022Z,74.30
2017-05-05T18:05:14.366Z,74.50
2017-05-05T18:10:11.771Z,74.10
2017-05-05T18:12:39.771Z,74.10
2017-05-05T18:15:08.815Z,73.90
2017-05-05T18:17:36.768Z,74.50
2017-05-05T18:20:05.140Z,75.40
2017-05-05T18:22:33.095Z,75.20
2017-05-05T18:25:01.018Z,75.50
2017-05-05T18:27:29.367Z,75.90
2017-05-05T18:29:57.290Z,75.30
2017-05-05T18:32:25.586Z,75.30
2017-05-05T18:34:53.561Z,76.10
2017-05-05T18:37:22.598Z,75.70
2017-05-05T18:39:50.897Z,76.40
2017-05-05T18:42:19.242Z,76.60
2017-05-05T18:47:16.050Z,75.40
2017-05-05T18:49:44.658Z,75.10
2017-05-05T18:52:13.331Z,75.80
2017-05-05T18:54:41.633Z,74.90
2017-05-05T18:59:38.711Z,75.00
2017-05-05T19:02:06.659Z,75.80
2017-05-05T19:04:35.026Z,76.60
2017-05-05T19:07:02.974Z,76.90
2017-05-05T19:12:00.608Z,77.90
2017-05-05T19:14:29.650Z,77.60
2017-05-05T19:16:57.947Z,77.40
2017-05-05T19:19:25.922Z,77.80
2017-05-05T19:21:54.962Z,78.00
2017-05-05T19:26:51.854Z,77.60
2017-05-05T19:29:20.150Z,78.20
2017-05-05T19:31:48.075Z,78.70
2017-05-05T19:34:16.418Z,78.60
2017-05-05T19:41:42.519Z,79.30
2017-05-05T19:44:11.553Z,80.10
2017-05-05T19:46:39.850Z,80.80
2017-05-05T19:49:08.934Z,80.50
2017-05-05T19:51:37.981Z,81.50
2017-05-05T19:54:06.286Z,81.50
2017-05-05T19:59:03.542Z,81.40
2017-05-05T20:01:31.870Z,81.80
2017-05-05T20:04:00.959Z,82.40
2017-05-05T20:08:57.762Z,82.30
2017-05-05T20:11:26.107Z,82.30
2017-05-05T20:13:55.163Z,82.30
2017-05-05T20:16:23.463Z,83.20
2017-05-05T20:18:52.186Z,82.90
2017-05-05T20:21:20.486Z,83.00
2017-05-05T20:28:46.598Z,83.10
2017-05-05T20:31:14.895Z,84.00
2017-05-05T20:33:42.870Z,83.60
2017-05-05T20:36:10.798Z,83.80
2017-05-05T20:38:39.461Z,84.00
2017-05-05T20:41:07.818Z,84.30
2017-05-05T20:43:35.763Z,84.50
2017-05-05T20:46:04.091Z,84.80
2017-05-05T20:48:32.466Z,85.30
2017-05-05T20:51:01.535Z,85.20
2017-05-05T20:53:29.839Z,86.10
2017-05-05T20:55:57.814Z,86.00
2017-05-05T21:03:24.290Z,86.30
2017-05-05T21:05:52.222Z,86.80
2017-05-05T21:08:20.528Z,86.80
2017-05-05T21:10:48.510Z,87.00
2017-05-05T21:13:17.550Z,88.10
2017-05-05T21:15:45.859Z,88.20
2017-05-05T21:20:43.482Z,87.90
2017-05-05T21:23:11.786Z,87.50
2017-05-05T21:25:39.999Z,87.60
2017-05-05T21:28:07.943Z,87.70
2017-05-05T21:30:36.260Z,88.20
2017-05-05T21:33:04.626Z,88.10
2017-05-05T21:35:32.562Z,87.30
2017-05-05T21:38:00.862Z,87.90
2017-05-05T21:40:29.242Z,87.60
2017-05-05T21:42:57.911Z,87.90
2017-05-05T21:45:26.206Z,87.50
2017-05-05T21:47:54.195Z,87.50
2017-05-05T21:50:22.499Z,87.60
2017-05-05T21:52:50.428Z,88.00
2017-05-05T21:55:19.146Z,88.70
2017-05-05T22:00:17.061Z,88.00
2017-05-05T22:02:45.406Z,87.70
2017-05-05T22:05:13.330Z,88.20
2017-05-05T22:07:41.627Z,88.40
2017-05-05T22:10:09.974Z,88.30
2017-05-05T22:12:38.274Z,88.30
2017-05-05T22:22:33.666Z,88.00
2017-05-05T22:25:02.021Z,88.10
2017-05-05T22:27:30.689Z,88.60
2017-05-05T22:29:58.991Z,88.60
2017-05-05T22:34:56.256Z,88.60
2017-05-05T22:37:24.573Z,87.70
2017-05-05T22:39:52.949Z,87.80
2017-05-05T22:42:20.908Z,87.60
2017-05-05T22:44:49.970Z,88.10
2017-05-05T22:47:17.982Z,87.60
2017-05-05T22:49:46.305Z,88.00
2017-05-05T22:54:43.200Z,88.00
2017-05-05T22:57:11.148Z,87.90
2017-05-05T22:59:39.469Z,88.00
2017-05-05T23:02:07.474Z,88.10
2017-05-05T23:04:35.801Z,88.20
2017-05-05T23:07:03.781Z,88.50
2017-05-05T23:09:32.167Z,88.70
2017-05-05T23:12:00.117Z,88.70
2017-05-05T23:14:28.806Z,89.20
2017-05-05T23:16:57.318Z,89.40
2017-05-05T23:19:25.634Z,89.40
2017-05-05T23:24:23.201Z,88.90
2017-05-05T23:26:51.156Z,88.50
2017-05-05T23:29:19.485Z,88.30
2017-05-05T23:31:47.873Z,88.30
2017-05-05T23:34:15.817Z,88.30
2017-05-05T23:39:13.461Z,88.10
2017-05-05T23:41:41.407Z,88.30
2017-05-05T23:44:09.358Z,88.20
2017-05-05T23:46:37.726Z,88.00
2017-05-05T23:49:05.685Z,88.10
2017-05-05T23:51:34.009Z,88.20
2017-05-05T23:54:02.049Z,88.40
2017-05-05T23:56:30.001Z,88.60
2017-05-05T23:58:58.514Z,88.40
